createdAt,value
2019-02-18T00:02:22.181Z,50.80
2019-02-18T00:04:49.908Z,50.80
2019-02-18T00:07:17.569Z,51.10
2019-02-18T00:09:45.185Z,51.10
2019-02-18T00:12:12.935Z,50.90
2019-02-18T00:14:40.733Z,50.60
2019-02-18T00:17:08.366Z,50.60
2019-02-18T00:19:35.981Z,50.80
2019-02-18T00:22:03.953Z,50.60
2019-02-18T00:24:31.624Z,49.70
2019-02-18T00:26:59.316Z,50.00
2019-02-18T00:29:26.970Z,49.80
2019-02-18T00:31:54.605Z,49.20
2019-02-18T00:34:22.260Z,49.50
2019-02-18T00:36:50.000Z,49.50
2019-02-18T00:39:17.616Z,50.00
2019-02-18T00:41:45.264Z,50.10
2019-02-18T00:44:12.932Z,49.90
2019-02-18T00:46:40.618Z,49.50
2019-02-18T00:49:08.267Z,49.70
2019-02-18T00:51:36.005Z,49.80
2019-02-18T00:54:03.973Z,49.60
2019-02-18T00:56:31.597Z,49.50
2019-02-18T00:58:59.213Z,49.70
2019-02-18T01:01:26.926Z,49.20
2019-02-18T01:03:54.563Z,49.40
2019-02-18T01:06:22.188Z,49.20
2019-02-18T01:08:49.852Z,49.70
2019-02-18T01:11:17.494Z,49.50
2019-02-18T01:13:45.310Z,49.60
2019-02-18T01:16:13.085Z,49.00
2019-02-18T01:18:40.707Z,49.60
2019-02-18T01:21:08.409Z,50.60
2019-02-18T01:23:36.058Z,49.60
2019-02-18T01:26:03.702Z,49.80
2019-02-18T01:28:31.324Z,50.00
2019-02-18T01:30:59.040Z,50.30
2019-02-18T01:33:26.705Z,50.70
2019-02-18T01:35:54.328Z,50.40
2019-02-18T01:38:22.017Z,50.40
2019-02-18T01:40:49.552Z,50.40
2019-02-18T01:43:17.175Z,50.70
2019-02-18T01:45:44.850Z,51.30
2019-02-18T01:48:12.524Z,51.10
2019-02-18T01:50:41.196Z,50.90
2019-02-18T01:53:09.005Z,50.80
2019-02-18T01:55:36.640Z,51.60
2019-02-18T01:58:04.252Z,52.10
2019-02-18T02:00:31.915Z,52.70
2019-02-18T02:02:59.727Z,51.80
2019-02-18T02:05:27.337Z,51.50
2019-02-18T02:07:56.668Z,51.50
2019-02-18T02:10:24.992Z,51.80
2019-02-18T02:13:40.228Z,51.50
2019-02-18T02:16:11.436Z,52.00
2019-02-18T02:18:39.084Z,52.00
2019-02-18T02:21:06.759Z,51.30
2019-02-18T02:23:34.384Z,51.60
2019-02-18T02:26:02.291Z,51.30
2019-02-18T02:28:29.940Z,51.30
2019-02-18T02:30:57.554Z,53.10
2019-02-18T02:33:25.266Z,52.30
2019-02-18T02:35:52.959Z,51.60
2019-02-18T02:38:20.839Z,52.40
2019-02-18T02:40:48.529Z,52.60
2019-02-18T02:43:16.149Z,52.00
2019-02-18T02:45:43.818Z,51.60
2019-02-18T02:48:11.483Z,52.00
2019-02-18T02:50:39.096Z,51.20
2019-02-18T02:53:06.803Z,51.30
2019-02-18T02:55:34.436Z,51.50
2019-02-18T02:58:02.214Z,51.70
2019-02-18T03:00:29.875Z,51.20
2019-02-18T03:02:57.497Z,50.70
2019-02-18T03:05:25.498Z,51.00
2019-02-18T03:07:53.098Z,50.80
2019-02-18T03:10:20.825Z,50.70
2019-02-18T03:12:48.528Z,50.30
2019-02-18T03:15:16.244Z,49.80
2019-02-18T03:17:43.873Z,50.30
2019-02-18T03:20:11.789Z,50.60
2019-02-18T03:22:39.445Z,50.40
2019-02-18T03:25:18.031Z,50.50
2019-02-18T03:27:49.331Z,50.40
2019-02-18T03:30:39.609Z,49.70
2019-02-18T03:33:08.954Z,49.80
2019-02-18T03:35:36.674Z,50.10
2019-02-18T03:38:04.324Z,51.50
2019-02-18T03:40:31.940Z,52.50
2019-02-18T03:42:59.556Z,51.90
2019-02-18T03:45:27.305Z,51.80
2019-02-18T03:47:54.922Z,51.80
2019-02-18T03:50:23.019Z,51.50
2019-02-18T03:52:50.680Z,52.00
2019-02-18T03:55:18.301Z,51.40
2019-02-18T03:57:46.052Z,52.10
2019-02-18T04:00:13.668Z,51.60
2019-02-18T04:02:41.309Z,52.00
2019-02-18T04:05:08.972Z,51.90
2019-02-18T04:07:36.695Z,51.70
2019-02-18T04:10:04.364Z,51.80
2019-02-18T04:12:32.020Z,51.80
2019-02-18T04:14:59.702Z,51.80
2019-02-18T04:17:27.787Z,51.50
2019-02-18T04:19:55.469Z,50.90
2019-02-18T04:22:23.145Z,51.10
2019-02-18T04:24:50.865Z,50.80
2019-02-18T04:27:18.508Z,51.40
2019-02-18T04:29:46.148Z,51.30
2019-02-18T04:32:13.797Z,51.10
2019-02-18T04:34:41.417Z,50.50
2019-02-18T04:37:09.046Z,50.80
2019-02-18T04:39:36.728Z,51.70
2019-02-18T04:42:05.462Z,51.60
2019-02-18T04:44:33.082Z,51.40
2019-02-18T04:47:00.742Z,51.50
2019-02-18T04:49:28.339Z,51.40
2019-02-18T04:51:56.052Z,52.20
2019-02-18T04:54:23.707Z,53.10
2019-02-18T04:56:51.341Z,52.40
2019-02-18T04:59:19.040Z,52.20
2019-02-18T05:01:46.677Z,51.50
2019-02-18T05:04:14.405Z,51.60
2019-02-18T05:06:42.056Z,52.00
2019-02-18T05:09:09.684Z,51.40
2019-02-18T05:11:37.336Z,52.40
2019-02-18T05:14:04.972Z,53.00
2019-02-18T05:16:32.644Z,52.50
2019-02-18T05:19:00.375Z,52.80
2019-02-18T05:21:28.018Z,53.60
2019-02-18T05:23:55.749Z,53.30
2019-02-18T05:26:23.364Z,53.10
2019-02-18T05:28:51.057Z,53.40
2019-02-18T05:31:18.681Z,53.00
2019-02-18T05:33:46.388Z,53.30
2019-02-18T05:36:14.032Z,52.90
2019-02-18T05:38:42.672Z,53.70
2019-02-18T05:41:10.324Z,53.40
2019-02-18T05:43:37.849Z,53.40
2019-02-18T05:46:08.369Z,53.20
2019-02-18T05:48:35.081Z,52.60
2019-02-18T05:51:02.774Z,53.40
2019-02-18T05:53:30.981Z,52.80
2019-02-18T05:55:58.601Z,52.80
2019-02-18T05:58:26.275Z,52.40
2019-02-18T06:00:53.908Z,52.10
2019-02-18T06:03:21.578Z,52.00
2019-02-18T06:05:49.221Z,51.70
2019-02-18T06:08:16.953Z,51.80
2019-02-18T06:10:44.643Z,51.60
2019-02-18T06:13:12.256Z,51.70
2019-02-18T06:15:39.891Z,51.30
2019-02-18T06:18:07.530Z,51.10
2019-02-18T06:20:35.173Z,51.50
2019-02-18T06:23:03.342Z,51.60
2019-02-18T06:25:31.026Z,51.60
2019-02-18T06:27:58.709Z,51.10
2019-02-18T06:30:26.337Z,51.10
2019-02-18T06:32:53.932Z,51.50
2019-02-18T06:35:21.819Z,51.70
2019-02-18T06:37:49.559Z,52.60
2019-02-18T06:40:17.181Z,53.00
2019-02-18T06:42:44.860Z,52.70
2019-02-18T06:45:34.872Z,53.10
2019-02-18T06:48:24.928Z,53.00
2019-02-18T06:50:52.505Z,53.20
2019-02-18T06:53:20.114Z,52.90
2019-02-18T06:55:48.010Z,53.00
2019-02-18T06:58:24.544Z,53.00
2019-02-18T07:00:59.734Z,54.30
2019-02-18T07:03:46.852Z,54.00
2019-02-18T07:06:24.137Z,54.60
2019-02-18T07:09:11.266Z,54.40
2019-02-18T07:11:47.484Z,54.80
2019-02-18T07:14:15.117Z,54.70
2019-02-18T07:16:42.740Z,54.70
2019-02-18T07:19:10.411Z,54.50
2019-02-18T07:21:38.112Z,54.50
2019-02-18T07:24:05.780Z,54.50
2019-02-18T07:26:33.423Z,54.40
2019-02-18T07:29:01.876Z,54.60
2019-02-18T07:31:29.587Z,54.70
2019-02-18T07:33:57.237Z,54.80
2019-02-18T07:36:24.952Z,54.80
2019-02-18T07:38:52.669Z,53.90
2019-02-18T07:41:20.313Z,53.90
2019-02-18T07:43:48.013Z,54.70
2019-02-18T07:46:15.654Z,55.30
2019-02-18T07:48:43.273Z,54.50
2019-02-18T07:51:10.942Z,54.10
2019-02-18T07:53:38.591Z,54.00
2019-02-18T07:56:06.318Z,55.40
2019-02-18T07:58:33.934Z,55.20
2019-02-18T08:01:01.703Z,57.70
2019-02-18T08:03:29.468Z,56.70
2019-02-18T08:05:57.097Z,56.40
2019-02-18T08:08:24.720Z,55.10
2019-02-18T08:10:52.348Z,55.70
2019-02-18T08:13:21.350Z,56.30
2019-02-18T08:15:48.975Z,55.50
2019-02-18T08:18:16.620Z,54.60
2019-02-18T08:20:44.299Z,54.30
2019-02-18T08:23:12.003Z,54.40
2019-02-18T08:25:39.712Z,54.30
2019-02-18T08:28:07.389Z,54.80
2019-02-18T08:30:35.028Z,54.80
2019-02-18T08:33:02.693Z,56.20
2019-02-18T08:35:30.472Z,55.60
2019-02-18T08:37:59.204Z,54.90
2019-02-18T08:40:26.900Z,54.50
2019-02-18T08:42:54.512Z,52.80
2019-02-18T08:45:22.176Z,51.80
2019-02-18T08:47:49.947Z,50.40
2019-02-18T08:50:17.600Z,48.70
2019-02-18T08:52:45.220Z,49.50
2019-02-18T08:55:13.019Z,47.40
2019-02-18T08:57:40.660Z,46.00
2019-02-18T09:00:11.440Z,42.80
2019-02-18T09:02:39.232Z,43.70
2019-02-18T09:05:07.128Z,40.40
2019-02-18T09:07:36.015Z,41.30
2019-02-18T09:10:04.109Z,41.10
2019-02-18T09:12:31.753Z,40.40
2019-02-18T09:14:59.388Z,40.50
2019-02-18T09:17:27.253Z,41.60
2019-02-18T09:19:54.880Z,42.10
2019-02-18T09:22:45.124Z,41.90
2019-02-18T09:25:18.602Z,41.70
2019-02-18T09:27:46.472Z,42.40
2019-02-18T09:30:16.572Z,42.50
2019-02-18T09:32:44.337Z,40.80
2019-02-18T09:35:11.993Z,37.20
2019-02-18T09:37:39.644Z,37.80
2019-02-18T09:40:07.381Z,37.80
2019-02-18T09:42:35.088Z,37.20
2019-02-18T09:45:02.765Z,36.70
2019-02-18T09:47:30.540Z,36.60
2019-02-18T09:49:58.201Z,36.40
2019-02-18T09:52:25.880Z,36.40
2019-02-18T09:54:53.592Z,34.90
2019-02-18T09:57:21.232Z,35.30
2019-02-18T09:59:48.925Z,34.60
2019-02-18T10:02:16.550Z,34.80
2019-02-18T10:04:44.914Z,34.70
2019-02-18T10:07:12.546Z,35.10
2019-02-18T10:09:40.199Z,33.40
2019-02-18T10:12:17.763Z,34.00
2019-02-18T10:14:37.569Z,35.00
2019-02-18T10:17:05.320Z,34.10
2019-02-18T10:19:33.008Z,32.40
2019-02-18T10:22:00.692Z,33.70
2019-02-18T10:24:28.255Z,34.50
2019-02-18T10:26:55.960Z,32.40
2019-02-18T10:29:23.746Z,35.50
2019-02-18T10:31:51.643Z,34.00
2019-02-18T10:34:19.296Z,33.20
2019-02-18T10:36:46.979Z,33.60
2019-02-18T10:39:14.652Z,33.20
2019-02-18T10:41:42.496Z,31.00
2019-02-18T10:44:10.132Z,32.90
2019-02-18T10:46:40.618Z,31.30
2019-02-18T10:49:18.904Z,33.30
2019-02-18T10:51:37.926Z,33.50
2019-02-18T10:54:06.003Z,33.60
2019-02-18T10:56:33.756Z,32.10
2019-02-18T10:59:01.427Z,30.30
2019-02-18T11:01:29.380Z,30.90
2019-02-18T11:03:57.041Z,30.90
2019-02-18T11:06:24.677Z,30.30
2019-02-18T11:08:52.373Z,30.80
2019-02-18T11:11:20.022Z,29.30
2019-02-18T11:13:47.645Z,30.60
2019-02-18T11:16:15.301Z,30.60
2019-02-18T11:18:42.927Z,31.20
2019-02-18T11:21:10.892Z,29.70
2019-02-18T11:23:38.552Z,29.20
2019-02-18T11:26:06.191Z,29.20
2019-02-18T11:28:33.985Z,27.80
2019-02-18T11:31:01.631Z,28.30
2019-02-18T11:33:29.581Z,27.80
2019-02-18T11:35:57.594Z,27.90
2019-02-18T11:38:25.237Z,28.20
2019-02-18T11:40:52.836Z,28.60
2019-02-18T11:43:20.461Z,28.60
2019-02-18T11:45:49.157Z,28.70
2019-02-18T11:48:16.777Z,28.30
2019-02-18T11:50:44.437Z,27.30
2019-02-18T11:53:12.213Z,26.20
2019-02-18T11:55:39.913Z,27.10
2019-02-18T11:58:07.682Z,27.20
2019-02-18T12:00:36.456Z,26.70
2019-02-18T12:03:11.600Z,27.20
2019-02-18T12:05:33.765Z,26.30
2019-02-18T12:08:01.829Z,25.80
2019-02-18T12:10:29.417Z,25.10
2019-02-18T12:12:56.961Z,26.00
2019-02-18T12:15:24.704Z,26.00
2019-02-18T12:17:52.504Z,25.30
2019-02-18T12:20:20.122Z,24.90
2019-02-18T12:22:47.871Z,25.70
2019-02-18T12:25:15.526Z,26.30
2019-02-18T12:27:43.424Z,25.70
2019-02-18T12:30:11.711Z,25.80
2019-02-18T12:32:39.396Z,27.10
2019-02-18T12:35:07.154Z,26.70
2019-02-18T12:37:34.931Z,26.20
2019-02-18T12:40:02.839Z,25.70
2019-02-18T12:42:31.643Z,25.40
2019-02-18T12:44:59.304Z,25.50
2019-02-18T12:47:26.981Z,25.40
2019-02-18T12:49:54.668Z,25.30
2019-02-18T12:52:22.455Z,26.70
2019-02-18T12:54:50.879Z,26.10
2019-02-18T12:57:18.713Z,24.30
2019-02-18T12:59:46.477Z,25.80
2019-02-18T13:02:14.679Z,25.00
2019-02-18T13:04:42.434Z,25.80
2019-02-18T13:07:10.177Z,25.90
2019-02-18T13:09:37.960Z,25.30
2019-02-18T13:12:05.680Z,25.20
2019-02-18T13:14:33.493Z,25.70
2019-02-18T13:17:01.297Z,25.70
2019-02-18T13:19:29.128Z,25.60
2019-02-18T13:21:57.133Z,25.20
2019-02-18T13:24:24.836Z,26.20
2019-02-18T13:26:52.477Z,24.50
2019-02-18T13:29:20.207Z,24.90
2019-02-18T13:31:47.924Z,25.00
2019-02-18T13:34:15.583Z,25.10
2019-02-18T13:36:43.243Z,25.80
2019-02-18T13:39:11.009Z,25.50
2019-02-18T13:41:38.848Z,24.30
2019-02-18T13:44:06.635Z,24.80
2019-02-18T13:46:34.325Z,25.80
2019-02-18T13:49:02.404Z,25.20
2019-02-18T13:51:30.216Z,24.30
2019-02-18T13:53:58.192Z,23.90
2019-02-18T13:56:25.869Z,24.40
2019-02-18T13:58:53.510Z,24.40
2019-02-18T14:01:21.245Z,24.90
2019-02-18T14:03:48.885Z,24.90
2019-02-18T14:06:16.539Z,23.90
2019-02-18T14:08:44.191Z,25.20
2019-02-18T14:11:11.869Z,23.90
2019-02-18T14:13:39.540Z,24.20
2019-02-18T14:16:07.320Z,24.10
2019-02-18T14:18:34.944Z,24.10
2019-02-18T14:21:02.990Z,24.20
2019-02-18T14:23:30.791Z,24.20
2019-02-18T14:25:58.627Z,23.80
2019-02-18T14:28:29.827Z,23.60
2019-02-18T14:30:57.972Z,23.70
2019-02-18T14:33:25.812Z,23.50
2019-02-18T14:35:53.440Z,23.30
2019-02-18T14:38:21.527Z,24.00
2019-02-18T14:40:49.173Z,23.20
2019-02-18T14:43:16.936Z,23.70
2019-02-18T14:45:44.681Z,22.90
2019-02-18T14:48:12.715Z,22.70
2019-02-18T14:50:40.440Z,22.70
2019-02-18T14:53:08.635Z,22.20
2019-02-18T14:55:36.273Z,22.80
2019-02-18T14:58:04.172Z,22.50
2019-02-18T15:00:31.923Z,23.60
2019-02-18T15:02:59.795Z,23.30
2019-02-18T15:05:27.840Z,23.20
2019-02-18T15:07:55.761Z,24.20
2019-02-18T15:10:23.512Z,24.20
2019-02-18T15:12:51.353Z,23.90
2019-02-18T15:15:19.384Z,23.90
2019-02-18T15:17:47.219Z,24.20
2019-02-18T15:20:14.914Z,24.70
2019-02-18T15:22:43.825Z,24.80
2019-02-18T15:25:11.636Z,25.30
2019-02-18T15:27:40.352Z,25.50
2019-02-18T15:30:08.948Z,25.50
2019-02-18T15:32:36.728Z,25.90
2019-02-18T15:35:04.594Z,26.30
2019-02-18T15:37:32.568Z,26.60
2019-02-18T15:40:00.302Z,26.30
2019-02-18T15:42:28.081Z,26.40
2019-02-18T15:44:55.810Z,26.20
2019-02-18T15:47:23.547Z,26.50
2019-02-18T15:49:51.376Z,26.50
2019-02-18T15:52:19.148Z,26.50
2019-02-18T15:54:47.340Z,27.70
2019-02-18T15:57:15.036Z,27.30
2019-02-18T15:59:42.659Z,27.60
2019-02-18T16:02:10.386Z,27.50
2019-02-18T16:04:38.087Z,27.40
2019-02-18T16:07:05.808Z,27.60
2019-02-18T16:09:33.462Z,27.30
2019-02-18T16:12:01.872Z,27.50
2019-02-18T16:14:29.553Z,29.20
2019-02-18T16:16:57.221Z,29.20
2019-02-18T16:19:24.890Z,28.60
2019-02-18T16:21:52.661Z,29.00
2019-02-18T16:24:20.418Z,29.70
2019-02-18T16:26:48.217Z,29.40
2019-02-18T16:29:16.163Z,29.60
2019-02-18T16:31:43.836Z,30.00
2019-02-18T16:34:11.860Z,30.20
2019-02-18T16:36:39.617Z,31.70
2019-02-18T16:39:07.858Z,31.70
2019-02-18T16:41:36.333Z,31.70
2019-02-18T16:44:04.030Z,32.50
2019-02-18T16:46:33.155Z,33.10
2019-02-18T16:49:01.678Z,33.30
2019-02-18T16:51:29.501Z,33.10
2019-02-18T16:53:57.316Z,33.10
2019-02-18T16:56:25.025Z,33.20
2019-02-18T16:58:52.702Z,34.10
2019-02-18T17:01:20.568Z,34.10
2019-02-18T17:03:48.322Z,33.50
2019-02-18T17:06:16.509Z,32.10
2019-02-18T17:08:44.169Z,33.00
2019-02-18T17:11:11.917Z,34.30
2019-02-18T17:13:39.700Z,34.70
2019-02-18T17:16:07.521Z,35.30
2019-02-18T17:18:35.526Z,35.40
2019-02-18T17:21:03.234Z,35.30
2019-02-18T17:23:31.261Z,35.50
2019-02-18T17:25:59.001Z,35.70
2019-02-18T17:28:26.707Z,35.10
2019-02-18T17:30:54.381Z,35.30
2019-02-18T17:33:22.328Z,36.30
2019-02-18T17:35:50.301Z,36.40
2019-02-18T17:38:20.980Z,36.20
2019-02-18T17:40:48.622Z,37.20
2019-02-18T17:43:16.712Z,37.40
2019-02-18T17:45:44.496Z,37.00
2019-02-18T17:48:12.130Z,37.30
2019-02-18T17:50:39.849Z,38.00
2019-02-18T17:53:08.514Z,38.20
2019-02-18T17:55:36.396Z,38.00
2019-02-18T17:58:05.089Z,38.00
2019-02-18T18:00:33.578Z,38.20
2019-02-18T18:03:01.269Z,38.00
2019-02-18T18:05:28.982Z,37.80
2019-02-18T18:07:57.198Z,38.20
2019-02-18T18:10:24.975Z,38.20
2019-02-18T18:12:53.103Z,37.90
2019-02-18T18:15:20.780Z,37.80
2019-02-18T18:17:48.529Z,37.70
2019-02-18T18:20:16.331Z,37.80
2019-02-18T18:22:44.279Z,37.00
2019-02-18T18:25:12.437Z,36.70
2019-02-18T18:27:40.229Z,37.40
2019-02-18T18:30:09.524Z,37.50
2019-02-18T18:32:37.167Z,37.80
2019-02-18T18:35:05.370Z,38.20
2019-02-18T18:37:34.317Z,38.50
2019-02-18T18:40:02.253Z,38.40
2019-02-18T18:42:31.381Z,38.50
2019-02-18T18:44:59.194Z,38.60
2019-02-18T18:47:26.881Z,39.10
2019-02-18T18:49:54.538Z,39.00
2019-02-18T18:52:22.225Z,39.10
2019-02-18T18:54:50.039Z,39.30
2019-02-18T18:57:18.168Z,39.70
2019-02-18T18:59:45.853Z,39.80
2019-02-18T19:02:13.587Z,40.00
2019-02-18T19:04:41.252Z,39.50
2019-02-18T19:07:08.960Z,39.40
2019-02-18T19:09:36.692Z,39.80
2019-02-18T19:12:04.366Z,40.00
2019-02-18T19:14:32.342Z,40.10
2019-02-18T19:17:01.592Z,40.30
2019-02-18T19:19:29.378Z,40.40
2019-02-18T19:21:57.155Z,39.50
2019-02-18T19:24:24.797Z,41.90
2019-02-18T19:26:52.478Z,42.70
2019-02-18T19:29:20.536Z,42.90
2019-02-18T19:31:48.224Z,42.90
2019-02-18T19:34:17.583Z,43.00
2019-02-18T19:36:45.393Z,43.30
2019-02-18T19:39:13.093Z,43.00
2019-02-18T19:41:40.806Z,42.70
2019-02-18T19:44:08.523Z,42.00
2019-02-18T19:46:36.283Z,42.80
2019-02-18T19:49:03.933Z,43.20
2019-02-18T19:51:31.619Z,44.10
2019-02-18T19:53:59.548Z,44.40
2019-02-18T19:56:27.310Z,44.70
2019-02-18T19:58:56.369Z,44.60
2019-02-18T20:01:26.549Z,44.70
2019-02-18T20:03:54.248Z,44.40
2019-02-18T20:06:22.185Z,44.10
2019-02-18T20:08:49.915Z,44.00
2019-02-18T20:11:19.214Z,44.40
2019-02-18T20:13:46.967Z,44.40
2019-02-18T20:16:15.107Z,44.20
2019-02-18T20:18:43.890Z,44.60
2019-02-18T20:21:11.597Z,44.70
2019-02-18T20:23:39.274Z,44.50
2019-02-18T20:26:06.980Z,44.60
2019-02-18T20:28:34.846Z,44.40
2019-02-18T20:31:02.657Z,44.60
2019-02-18T20:33:31.025Z,44.60
2019-02-18T20:36:00.604Z,44.60
2019-02-18T20:38:30.325Z,44.50
2019-02-18T20:40:59.285Z,44.50
2019-02-18T20:43:26.958Z,44.40
2019-02-18T20:45:54.785Z,45.10
2019-02-18T20:48:22.915Z,45.90
2019-02-18T20:50:50.602Z,45.60
2019-02-18T20:53:19.205Z,45.70
2019-02-18T20:55:48.208Z,45.10
2019-02-18T20:58:15.917Z,45.00
2019-02-18T21:00:43.781Z,45.60
2019-02-18T21:03:11.657Z,45.50
2019-02-18T21:05:39.367Z,45.30
2019-02-18T21:08:07.133Z,44.20
2019-02-18T21:10:34.913Z,44.40
2019-02-18T21:13:02.661Z,45.10
2019-02-18T21:15:30.340Z,46.10
2019-02-18T21:17:59.238Z,46.70
2019-02-18T21:20:27.341Z,46.60
2019-02-18T21:22:55.036Z,46.70
2019-02-18T21:25:22.735Z,46.30
2019-02-18T21:27:50.397Z,46.30
2019-02-18T21:30:18.182Z,46.50
2019-02-18T21:32:45.964Z,46.20
2019-02-18T21:35:14.677Z,46.10
2019-02-18T21:37:42.756Z,45.40
2019-02-18T21:40:10.485Z,45.30
2019-02-18T21:42:38.225Z,45.50
2019-02-18T21:45:06.507Z,46.00
2019-02-18T21:47:34.161Z,46.50
2019-02-18T21:50:01.853Z,48.10
2019-02-18T21:52:29.631Z,48.00
2019-02-18T21:54:57.656Z,47.90
2019-02-18T21:57:25.393Z,48.00
2019-02-18T21:59:53.057Z,47.70
2019-02-18T22:02:20.726Z,47.90
2019-02-18T22:04:48.461Z,47.60
2019-02-18T22:07:16.151Z,47.50
2019-02-18T22:09:44.014Z,47.50
2019-02-18T22:12:12.004Z,47.70
2019-02-18T22:14:39.705Z,48.10
2019-02-18T22:17:07.392Z,47.70
2019-02-18T22:19:35.031Z,48.20
2019-02-18T22:22:02.833Z,49.10
2019-02-18T22:24:30.643Z,49.20
2019-02-18T22:26:58.354Z,49.50
2019-02-18T22:29:26.528Z,50.00
2019-02-18T22:31:54.238Z,49.70
2019-02-18T22:34:21.926Z,49.30
2019-02-18T22:36:49.652Z,49.10
2019-02-18T22:39:17.310Z,49.00
2019-02-18T22:41:44.972Z,49.00
2019-02-18T22:44:12.700Z,49.70
2019-02-18T22:46:40.396Z,49.20
2019-02-18T22:49:08.389Z,49.40
2019-02-18T22:51:36.136Z,49.50
2019-02-18T22:54:03.812Z,49.80
2019-02-18T22:56:31.493Z,49.70
2019-02-18T22:58:59.166Z,50.80
2019-02-18T23:01:27.078Z,51.30
2019-02-18T23:03:54.919Z,52.10
2019-02-18T23:06:22.923Z,51.90
2019-02-18T23:08:50.533Z,52.50
2019-02-18T23:11:18.211Z,52.40
2019-02-18T23:13:45.864Z,52.20
2019-02-18T23:16:13.533Z,52.50
2019-02-18T23:18:41.178Z,52.80
2019-02-18T23:21:08.844Z,52.50
2019-02-18T23:23:36.559Z,52.20
2019-02-18T23:26:04.212Z,52.20
2019-02-18T23:28:31.880Z,51.90
2019-02-18T23:30:59.644Z,52.10
2019-02-18T23:33:27.356Z,51.20
2019-02-18T23:35:55.021Z,51.00
2019-02-18T23:38:22.779Z,50.80
2019-02-18T23:40:50.428Z,51.30
2019-02-18T23:43:18.468Z,52.00
2019-02-18T23:45:46.114Z,51.50
2019-02-18T23:48:13.756Z,50.60
2019-02-18T23:50:41.443Z,50.70
2019-02-18T23:53:09.085Z,50.40
2019-02-18T23:55:36.818Z,50.20
2019-02-18T23:58:04.523Z,50.30
